sensor_id;sensor_type;location;lat;lon;timestamp;pressure;altitude;pressure_sealevel;temperature;humidity
29879;BME280;16752;53.364;-1.488;2023-06-04T00:00:42;101440.47;;;18.87;37.55
29879;BME280;16752;53.364;-1.488;2023-06-04T00:03:26;101400.50;;;18.68;37.53
29879;BME280;16752;53.364;-1.488;2023-06-04T00:06:10;101418.94;;;18.69;38.28
29879;BME280;16752;53.364;-1.488;2023-06-04T00:08:55;101408.22;;;18.59;37.66
29879;BME280;16752;53.364;-1.488;2023-06-04T00:11:39;101470.91;;;19.04;37.38
29879;BME280;16752;53.364;-1.488;2023-06-04T00:14:23;101398.69;;;18.57;37.75
29879;BME280;16752;53.364;-1.488;2023-06-04T00:17:08;101397.78;;;18.47;37.42
29879;BME280;16752;53.364;-1.488;2023-06-04T00:19:53;101444.66;;;18.69;37.48
29879;BME280;16752;53.364;-1.488;2023-06-04T00:22:37;101404.06;;;18.46;37.68
29879;BME280;16752;53.364;-1.488;2023-06-04T00:25:21;101404.78;;;18.48;37.62
29879;BME280;16752;53.364;-1.488;2023-06-04T00:28:06;101435.84;;;18.57;37.77
29879;BME280;16752;53.364;-1.488;2023-06-04T00:30:50;101447.50;;;18.77;37.92
29879;BME280;16752;53.364;-1.488;2023-06-04T00:33:34;101390.78;;;18.46;37.80
29879;BME280;16752;53.364;-1.488;2023-06-04T00:36:19;101387.91;;;18.38;38.13
29879;BME280;16752;53.364;-1.488;2023-06-04T00:39:04;101393.94;;;18.40;37.92
29879;BME280;16752;53.364;-1.488;2023-06-04T00:41:48;101397.16;;;18.43;38.04
29879;BME280;16752;53.364;-1.488;2023-06-04T00:44:32;101366.25;;;18.21;38.22
29879;BME280;16752;53.364;-1.488;2023-06-04T00:47:18;101415.66;;;18.45;38.33
29879;BME280;16752;53.364;-1.488;2023-06-04T00:50:04;101378.31;;;18.25;38.71
29879;BME280;16752;53.364;-1.488;2023-06-04T00:52:49;101447.19;;;18.70;38.61
29879;BME280;16752;53.364;-1.488;2023-06-04T00:55:33;101391.19;;;18.30;38.78
29879;BME280;16752;53.364;-1.488;2023-06-04T00:58:18;101375.69;;;18.14;38.81
29879;BME280;16752;53.364;-1.488;2023-06-04T01:01:04;101399.41;;;18.27;39.05
29879;BME280;16752;53.364;-1.488;2023-06-04T01:03:51;101435.91;;;18.35;39.09
29879;BME280;16752;53.364;-1.488;2023-06-04T01:06:38;101464.59;;;18.41;39.40
29879;BME280;16752;53.364;-1.488;2023-06-04T01:09:26;101461.34;;;18.37;39.65
29879;BME280;16752;53.364;-1.488;2023-06-04T01:12:10;101417.53;;;17.99;39.83
29879;BME280;16752;53.364;-1.488;2023-06-04T01:14:55;101370.81;;;17.65;39.77
29879;BME280;16752;53.364;-1.488;2023-06-04T01:17:49;101458.88;;;18.13;40.32
29879;BME280;16752;53.364;-1.488;2023-06-04T01:20:42;101397.19;;;17.66;40.27
29879;BME280;16752;53.364;-1.488;2023-06-04T01:23:36;101403.97;;;17.70;40.52
29879;BME280;16752;53.364;-1.488;2023-06-04T01:26:29;101373.34;;;17.44;40.92
29879;BME280;16752;53.364;-1.488;2023-06-04T01:29:13;101395.16;;;17.59;41.14
29879;BME280;16752;53.364;-1.488;2023-06-04T01:31:58;101390.31;;;17.53;40.97
29879;BME280;16752;53.364;-1.488;2023-06-04T01:34:44;101466.09;;;18.00;41.11
29879;BME280;16752;53.364;-1.488;2023-06-04T01:37:29;101377.31;;;17.50;41.20
29879;BME280;16752;53.364;-1.488;2023-06-04T01:40:13;101414.81;;;17.67;40.93
29879;BME280;16752;53.364;-1.488;2023-06-04T01:42:58;101365.16;;;17.47;41.25
29879;BME280;16752;53.364;-1.488;2023-06-04T01:45:42;101444.16;;;17.98;41.26
29879;BME280;16752;53.364;-1.488;2023-06-04T01:48:26;101392.00;;;17.65;41.33
29879;BME280;16752;53.364;-1.488;2023-06-04T01:51:10;101450.44;;;18.08;41.31
29879;BME280;16752;53.364;-1.488;2023-06-04T01:53:54;101456.94;;;18.15;41.18
29879;BME280;16752;53.364;-1.488;2023-06-04T01:56:38;101437.53;;;18.26;41.00
29879;BME280;16752;53.364;-1.488;2023-06-04T01:59:22;101430.28;;;18.28;40.91
29879;BME280;16752;53.364;-1.488;2023-06-04T02:02:06;101408.94;;;18.18;41.12
29879;BME280;16752;53.364;-1.488;2023-06-04T02:04:50;101407.84;;;18.32;41.05
29879;BME280;16752;53.364;-1.488;2023-06-04T02:07:41;101382.41;;;18.29;41.30
29879;BME280;16752;53.364;-1.488;2023-06-04T02:10:26;101372.75;;;18.28;40.94
29879;BME280;16752;53.364;-1.488;2023-06-04T02:13:10;101474.13;;;18.86;40.58
29879;BME280;16752;53.364;-1.488;2023-06-04T02:15:54;101457.94;;;18.69;41.26
29879;BME280;16752;53.364;-1.488;2023-06-04T02:18:38;101411.75;;;18.49;40.89
29879;BME280;16752;53.364;-1.488;2023-06-04T02:21:22;101438.38;;;18.58;40.75
29879;BME280;16752;53.364;-1.488;2023-06-04T02:24:06;101390.03;;;18.23;40.72
29879;BME280;16752;53.364;-1.488;2023-06-04T02:26:50;101425.88;;;18.38;41.00
29879;BME280;16752;53.364;-1.488;2023-06-04T02:29:34;101409.91;;;18.17;41.21
29879;BME280;16752;53.364;-1.488;2023-06-04T02:32:19;101356.38;;;17.80;41.08
29879;BME280;16752;53.364;-1.488;2023-06-04T02:35:03;101440.44;;;18.23;41.28
29879;BME280;16752;53.364;-1.488;2023-06-04T02:37:48;101440.78;;;18.18;41.51
29879;BME280;16752;53.364;-1.488;2023-06-04T02:40:33;101371.53;;;17.67;41.60
29879;BME280;16752;53.364;-1.488;2023-06-04T02:43:17;101424.31;;;17.92;41.83
29879;BME280;16752;53.364;-1.488;2023-06-04T02:46:01;101437.56;;;18.04;41.82
29879;BME280;16752;53.364;-1.488;2023-06-04T02:48:45;101405.88;;;17.68;42.37
29879;BME280;16752;53.364;-1.488;2023-06-04T02:51:29;101417.94;;;17.73;42.21
29879;BME280;16752;53.364;-1.488;2023-06-04T02:54:14;101426.59;;;17.75;42.12
29879;BME280;16752;53.364;-1.488;2023-06-04T02:56:58;101420.31;;;17.64;42.55
29879;BME280;16752;53.364;-1.488;2023-06-04T02:59:43;101444.91;;;17.78;42.40
29879;BME280;16752;53.364;-1.488;2023-06-04T03:02:28;101391.66;;;17.36;42.69
29879;BME280;16752;53.364;-1.488;2023-06-04T03:05:14;101409.09;;;17.50;43.02
29879;BME280;16752;53.364;-1.488;2023-06-04T03:08:01;101418.50;;;17.54;42.81
29879;BME280;16752;53.364;-1.488;2023-06-04T03:10:46;101464.91;;;17.93;42.86
29879;BME280;16752;53.364;-1.488;2023-06-04T03:13:30;101381.88;;;17.48;42.94
29879;BME280;16752;53.364;-1.488;2023-06-04T03:16:14;101394.06;;;17.61;42.81
29879;BME280;16752;53.364;-1.488;2023-06-04T03:18:58;101382.03;;;17.68;42.96
29879;BME280;16752;53.364;-1.488;2023-06-04T03:21:42;101468.25;;;18.28;42.89
29879;BME280;16752;53.364;-1.488;2023-06-04T03:24:28;101435.50;;;18.07;42.97
29879;BME280;16752;53.364;-1.488;2023-06-04T03:27:12;101449.88;;;17.82;44.20
29879;BME280;16752;53.364;-1.488;2023-06-04T03:29:56;101465.44;;;18.41;43.22
29879;BME280;16752;53.364;-1.488;2023-06-04T03:32:40;101463.53;;;18.21;43.84
29879;BME280;16752;53.364;-1.488;2023-06-04T03:35:24;101456.88;;;18.49;43.63
29879;BME280;16752;53.364;-1.488;2023-06-04T03:38:09;101426.91;;;18.26;43.67
29879;BME280;16752;53.364;-1.488;2023-06-04T03:40:52;101449.34;;;18.65;42.67
29879;BME280;16752;53.364;-1.488;2023-06-04T03:43:36;101438.72;;;18.65;42.81
29879;BME280;16752;53.364;-1.488;2023-06-04T03:46:20;101432.16;;;18.48;43.18
29879;BME280;16752;53.364;-1.488;2023-06-04T03:49:05;101408.66;;;18.44;42.69
29879;BME280;16752;53.364;-1.488;2023-06-04T03:51:49;101435.00;;;18.56;42.95
29879;BME280;16752;53.364;-1.488;2023-06-04T03:54:33;101374.50;;;18.39;42.11
29879;BME280;16752;53.364;-1.488;2023-06-04T03:57:17;101399.06;;;18.52;42.23
29879;BME280;16752;53.364;-1.488;2023-06-04T04:00:01;101417.28;;;18.68;41.96
29879;BME280;16752;53.364;-1.488;2023-06-04T04:02:48;101424.97;;;18.71;42.12
29879;BME280;16752;53.364;-1.488;2023-06-04T04:05:32;101467.03;;;19.08;42.01
29879;BME280;16752;53.364;-1.488;2023-06-04T04:08:16;101415.59;;;18.88;42.06
29879;BME280;16752;53.364;-1.488;2023-06-04T04:11:00;101438.59;;;18.99;41.66
29879;BME280;16752;53.364;-1.488;2023-06-04T04:13:45;101457.84;;;19.12;41.56
29879;BME280;16752;53.364;-1.488;2023-06-04T04:16:30;101445.66;;;18.88;42.15
29879;BME280;16752;53.364;-1.488;2023-06-04T04:19:14;101465.72;;;19.23;41.84
29879;BME280;16752;53.364;-1.488;2023-06-04T04:21:58;101419.75;;;19.02;41.49
29879;BME280;16752;53.364;-1.488;2023-06-04T04:24:42;101426.34;;;19.07;41.48
29879;BME280;16752;53.364;-1.488;2023-06-04T04:27:27;101399.78;;;18.86;41.52
29879;BME280;16752;53.364;-1.488;2023-06-04T04:30:14;101418.75;;;19.03;41.49
29879;BME280;16752;53.364;-1.488;2023-06-04T04:32:59;101413.19;;;19.06;41.04
29879;BME280;16752;53.364;-1.488;2023-06-04T04:35:44;101433.72;;;19.04;41.75
29879;BME280;16752;53.364;-1.488;2023-06-04T04:38:28;101395.84;;;19.02;41.04
29879;BME280;16752;53.364;-1.488;2023-06-04T04:41:15;101455.19;;;19.33;41.23
29879;BME280;16752;53.364;-1.488;2023-06-04T04:44:03;101422.84;;;19.07;41.06
29879;BME280;16752;53.364;-1.488;2023-06-04T04:46:48;101454.84;;;19.26;40.84
29879;BME280;16752;53.364;-1.488;2023-06-04T04:49:33;101403.66;;;19.03;40.71
29879;BME280;16752;53.364;-1.488;2023-06-04T04:52:17;101428.75;;;19.31;40.19
29879;BME280;16752;53.364;-1.488;2023-06-04T04:55:01;101447.38;;;19.41;40.50
29879;BME280;16752;53.364;-1.488;2023-06-04T04:57:45;101428.41;;;19.04;40.60
29879;BME280;16752;53.364;-1.488;2023-06-04T05:00:29;101493.56;;;19.61;40.22
29879;BME280;16752;53.364;-1.488;2023-06-04T05:03:14;101485.03;;;19.67;40.06
29879;BME280;16752;53.364;-1.488;2023-06-04T05:05:59;101421.28;;;19.25;40.00
29879;BME280;16752;53.364;-1.488;2023-06-04T05:08:42;101409.91;;;19.13;40.40
29879;BME280;16752;53.364;-1.488;2023-06-04T05:11:26;101407.25;;;19.13;40.25
29879;BME280;16752;53.364;-1.488;2023-06-04T05:14:10;101449.78;;;19.02;41.46
29879;BME280;16752;53.364;-1.488;2023-06-04T05:16:55;101455.19;;;19.33;40.56
29879;BME280;16752;53.364;-1.488;2023-06-04T05:19:42;101459.63;;;19.53;39.58
29879;BME280;16752;53.364;-1.488;2023-06-04T05:22:26;101453.28;;;19.44;39.92
29879;BME280;16752;53.364;-1.488;2023-06-04T05:25:14;101391.34;;;19.23;39.53
29879;BME280;16752;53.364;-1.488;2023-06-04T05:27:58;101447.13;;;19.44;39.37
29879;BME280;16752;53.364;-1.488;2023-06-04T05:30:42;101450.59;;;19.56;39.55
29879;BME280;16752;53.364;-1.488;2023-06-04T05:33:28;101395.38;;;19.17;40.00
29879;BME280;16752;53.364;-1.488;2023-06-04T05:36:14;101465.19;;;19.71;39.22
29879;BME280;16752;53.364;-1.488;2023-06-04T05:38:58;101415.69;;;19.28;39.73
29879;BME280;16752;53.364;-1.488;2023-06-04T05:41:43;101430.81;;;19.28;39.78
29879;BME280;16752;53.364;-1.488;2023-06-04T05:44:28;101446.03;;;19.05;39.96
29879;BME280;16752;53.364;-1.488;2023-06-04T05:47:16;101491.25;;;20.07;38.18
29879;BME280;16752;53.364;-1.488;2023-06-04T05:50:03;101404.56;;;19.55;38.21
29879;BME280;16752;53.364;-1.488;2023-06-04T05:52:50;101391.88;;;19.47;38.42
29879;BME280;16752;53.364;-1.488;2023-06-04T05:55:33;101435.38;;;18.63;40.76
29879;BME280;16752;53.364;-1.488;2023-06-04T05:58:17;101496.13;;;20.02;38.86
29879;BME280;16752;53.364;-1.488;2023-06-04T06:01:02;101456.03;;;19.84;39.26
29879;BME280;16752;53.364;-1.488;2023-06-04T06:03:47;101472.97;;;20.24;38.52
29879;BME280;16752;53.364;-1.488;2023-06-04T06:06:31;101410.97;;;19.52;39.05
29879;BME280;16752;53.364;-1.488;2023-06-04T06:09:16;101422.97;;;19.77;38.36
29879;BME280;16752;53.364;-1.488;2023-06-04T06:12:00;101434.75;;;19.84;37.96
29879;BME280;16752;53.364;-1.488;2023-06-04T06:14:44;101478.16;;;19.43;39.25
29879;BME280;16752;53.364;-1.488;2023-06-04T06:17:29;101458.81;;;19.83;37.89
29879;BME280;16752;53.364;-1.488;2023-06-04T06:20:13;101464.63;;;19.67;38.11
29879;BME280;16752;53.364;-1.488;2023-06-04T06:23:07;101442.63;;;19.56;38.12
29879;BME280;16752;53.364;-1.488;2023-06-04T06:25:51;101437.63;;;20.02;37.09
29879;BME280;16752;53.364;-1.488;2023-06-04T06:28:35;101480.44;;;20.39;36.85
29879;BME280;16752;53.364;-1.488;2023-06-04T06:31:20;101451.94;;;20.21;35.90
29879;BME280;16752;53.364;-1.488;2023-06-04T06:34:04;101467.03;;;20.10;37.26
29879;BME280;16752;53.364;-1.488;2023-06-04T06:36:49;101515.06;;;20.49;36.82
29879;BME280;16752;53.364;-1.488;2023-06-04T06:39:33;101510.16;;;20.44;36.72
29879;BME280;16752;53.364;-1.488;2023-06-04T06:42:18;101504.03;;;20.63;35.92
29879;BME280;16752;53.364;-1.488;2023-06-04T06:45:11;101418.22;;;19.81;36.70
29879;BME280;16752;53.364;-1.488;2023-06-04T06:47:58;101444.63;;;20.03;35.96
29879;BME280;16752;53.364;-1.488;2023-06-04T06:50:43;101452.94;;;20.20;36.31
29879;BME280;16752;53.364;-1.488;2023-06-04T06:53:26;101517.91;;;20.67;36.25
29879;BME280;16752;53.364;-1.488;2023-06-04T06:56:10;101460.28;;;20.47;36.08
29879;BME280;16752;53.364;-1.488;2023-06-04T06:58:57;101489.59;;;20.75;36.03
29879;BME280;16752;53.364;-1.488;2023-06-04T07:01:47;101413.03;;;19.79;36.51
29879;BME280;16752;53.364;-1.488;2023-06-04T07:04:31;101483.41;;;20.46;36.40
29879;BME280;16752;53.364;-1.488;2023-06-04T07:07:15;101472.78;;;20.75;36.14
29879;BME280;16752;53.364;-1.488;2023-06-04T07:10:00;101464.41;;;20.20;37.13
29879;BME280;16752;53.364;-1.488;2023-06-04T07:12:47;101470.94;;;20.56;36.49
29879;BME280;16752;53.364;-1.488;2023-06-04T07:15:31;101441.81;;;20.74;35.81
29879;BME280;16752;53.364;-1.488;2023-06-04T07:18:15;101479.78;;;21.24;35.59
29879;BME280;16752;53.364;-1.488;2023-06-04T07:21:07;101468.56;;;21.11;35.24
29879;BME280;16752;53.364;-1.488;2023-06-04T07:24:10;101388.94;;;20.89;35.07
29879;BME280;16752;53.364;-1.488;2023-06-04T07:26:54;101507.19;;;21.73;34.50
29879;BME280;16752;53.364;-1.488;2023-06-04T07:29:37;101436.00;;;21.17;34.61
29879;BME280;16752;53.364;-1.488;2023-06-04T07:32:22;101496.06;;;21.78;33.92
29879;BME280;16752;53.364;-1.488;2023-06-04T07:35:15;101514.41;;;21.53;34.64
29879;BME280;16752;53.364;-1.488;2023-06-04T07:38:00;101510.00;;;21.62;34.20
29879;BME280;16752;53.364;-1.488;2023-06-04T07:40:45;101505.59;;;20.95;34.99
29879;BME280;16752;53.364;-1.488;2023-06-04T07:43:29;101484.41;;;20.93;35.58
29879;BME280;16752;53.364;-1.488;2023-06-04T07:46:13;101513.28;;;21.46;34.69
29879;BME280;16752;53.364;-1.488;2023-06-04T07:53:06;101456.66;;;21.72;34.02
29879;BME280;16752;53.364;-1.488;2023-06-04T07:56:06;101512.81;;;22.17;33.74
29879;BME280;16752;53.364;-1.488;2023-06-04T08:05:34;101512.19;;;22.50;33.29
29879;BME280;16752;53.364;-1.488;2023-06-04T08:08:23;101475.75;;;22.32;33.33
29879;BME280;16752;53.364;-1.488;2023-06-04T08:22:29;101513.47;;;23.09;32.61
29879;BME280;16752;53.364;-1.488;2023-06-04T08:29:20;101512.13;;;22.15;33.74
29879;BME280;16752;53.364;-1.488;2023-06-04T08:32:05;101459.38;;;22.44;33.51
29879;BME280;16752;53.364;-1.488;2023-06-04T08:34:58;101451.50;;;22.25;33.08
29879;BME280;16752;53.364;-1.488;2023-06-04T08:37:45;101411.06;;;22.20;32.51
29879;BME280;16752;53.364;-1.488;2023-06-04T08:40:33;101427.69;;;22.14;34.15
29879;BME280;16752;53.364;-1.488;2023-06-04T08:43:55;101508.47;;;22.79;33.25
29879;BME280;16752;53.364;-1.488;2023-06-04T08:46:51;101435.25;;;23.33;32.21
29879;BME280;16752;53.364;-1.488;2023-06-04T08:50:18;101508.50;;;23.58;32.16
29879;BME280;16752;53.364;-1.488;2023-06-04T08:53:05;101480.44;;;23.96;30.54
29879;BME280;16752;53.364;-1.488;2023-06-04T08:55:53;101476.69;;;23.81;31.22
29879;BME280;16752;53.364;-1.488;2023-06-04T08:59:06;101502.78;;;24.21;30.12
29879;BME280;16752;53.364;-1.488;2023-06-04T09:01:55;101496.94;;;23.84;31.57
29879;BME280;16752;53.364;-1.488;2023-06-04T09:04:40;101478.28;;;24.00;30.47
29879;BME280;16752;53.364;-1.488;2023-06-04T09:07:24;101434.22;;;23.52;32.32
29879;BME280;16752;53.364;-1.488;2023-06-04T09:10:09;101452.41;;;23.74;31.35
29879;BME280;16752;53.364;-1.488;2023-06-04T09:13:03;101458.59;;;24.09;30.55
29879;BME280;16752;53.364;-1.488;2023-06-04T09:16:13;101504.47;;;24.22;31.65
29879;BME280;16752;53.364;-1.488;2023-06-04T09:22:34;101508.97;;;24.72;31.00
29879;BME280;16752;53.364;-1.488;2023-06-04T09:25:21;101511.78;;;24.46;31.27
29879;BME280;16752;53.364;-1.488;2023-06-04T09:28:33;101507.94;;;24.49;31.48
29879;BME280;16752;53.364;-1.488;2023-06-04T09:31:17;101416.44;;;23.69;32.34
29879;BME280;16752;53.364;-1.488;2023-06-04T09:34:03;101430.00;;;22.80;33.14
29879;BME280;16752;53.364;-1.488;2023-06-04T09:36:50;101453.00;;;23.60;32.41
29879;BME280;16752;53.364;-1.488;2023-06-04T09:39:51;101449.84;;;24.07;31.65
29879;BME280;16752;53.364;-1.488;2023-06-04T09:43:26;101505.31;;;24.23;31.98
29879;BME280;16752;53.364;-1.488;2023-06-04T09:46:14;101497.63;;;24.94;31.90
29879;BME280;16752;53.364;-1.488;2023-06-04T09:49:00;101440.31;;;25.28;31.40
29879;BME280;16752;53.364;-1.488;2023-06-04T09:51:48;101503.97;;;25.67;29.75
29879;BME280;16752;53.364;-1.488;2023-06-04T09:54:40;101465.84;;;25.87;29.07
29879;BME280;16752;53.364;-1.488;2023-06-04T09:57:32;101494.63;;;25.38;29.54
29879;BME280;16752;53.364;-1.488;2023-06-04T10:00:22;101448.50;;;25.35;30.70
29879;BME280;16752;53.364;-1.488;2023-06-04T10:03:09;101467.88;;;25.85;29.57
29879;BME280;16752;53.364;-1.488;2023-06-04T10:09:59;101466.19;;;27.00;27.15
29879;BME280;16752;53.364;-1.488;2023-06-04T10:13:17;101505.13;;;26.28;29.20
29879;BME280;16752;53.364;-1.488;2023-06-04T10:16:12;101500.78;;;26.80;29.38
29879;BME280;16752;53.364;-1.488;2023-06-04T10:19:44;101426.81;;;25.69;29.55
29879;BME280;16752;53.364;-1.488;2023-06-04T10:25:48;101450.31;;;26.68;27.75
29879;BME280;16752;53.364;-1.488;2023-06-04T10:28:35;101499.19;;;27.17;27.58
29879;BME280;16752;53.364;-1.488;2023-06-04T10:31:19;101467.03;;;26.78;28.09
29879;BME280;16752;53.364;-1.488;2023-06-04T10:34:35;101507.09;;;26.65;29.80
29879;BME280;16752;53.364;-1.488;2023-06-04T10:37:29;101467.50;;;26.59;28.53
29879;BME280;16752;53.364;-1.488;2023-06-04T10:40:18;101505.66;;;25.51;30.15
29879;BME280;16752;53.364;-1.488;2023-06-04T10:43:16;101464.78;;;26.05;29.70
29879;BME280;16752;53.364;-1.488;2023-06-04T10:46:36;101507.06;;;26.42;28.87
29879;BME280;16752;53.364;-1.488;2023-06-04T10:49:28;101500.28;;;25.51;30.55
29879;BME280;16752;53.364;-1.488;2023-06-04T10:52:18;101436.72;;;25.68;29.28
29879;BME280;16752;53.364;-1.488;2023-06-04T10:55:07;101467.88;;;25.77;29.52
29879;BME280;16752;53.364;-1.488;2023-06-04T10:58:18;101436.91;;;25.50;29.83
29879;BME280;16752;53.364;-1.488;2023-06-04T11:02:13;101446.63;;;25.59;30.32
29879;BME280;16752;53.364;-1.488;2023-06-04T11:06:17;101432.66;;;26.11;29.28
29879;BME280;16752;53.364;-1.488;2023-06-04T11:12:58;101481.13;;;26.80;27.50
29879;BME280;16752;53.364;-1.488;2023-06-04T11:19:07;101496.16;;;26.66;28.60
29879;BME280;16752;53.364;-1.488;2023-06-04T11:21:51;101487.56;;;26.94;28.32
29879;BME280;16752;53.364;-1.488;2023-06-04T11:24:35;101481.41;;;25.04;29.79
29879;BME280;16752;53.364;-1.488;2023-06-04T11:27:20;101487.88;;;26.14;28.71
29879;BME280;16752;53.364;-1.488;2023-06-04T11:30:10;101524.75;;;27.51;27.69
29879;BME280;16752;53.364;-1.488;2023-06-04T11:33:03;101515.06;;;26.81;28.84
29879;BME280;16752;53.364;-1.488;2023-06-04T11:35:47;101522.25;;;25.71;30.78
29879;BME280;16752;53.364;-1.488;2023-06-04T11:38:35;101506.69;;;27.59;27.20
29879;BME280;16752;53.364;-1.488;2023-06-04T11:41:22;101470.97;;;27.65;26.79
29879;BME280;16752;53.364;-1.488;2023-06-04T11:44:06;101473.13;;;27.32;27.47
29879;BME280;16752;53.364;-1.488;2023-06-04T13:37:05;101415.25;;;29.58;24.05
29879;BME280;16752;53.364;-1.488;2023-06-04T13:39:50;101473.91;;;28.00;25.58
29879;BME280;16752;53.364;-1.488;2023-06-04T13:42:34;101433.00;;;28.11;26.42
29879;BME280;16752;53.364;-1.488;2023-06-04T13:45:18;101454.47;;;28.98;25.19
29879;BME280;16752;53.364;-1.488;2023-06-04T13:48:04;101440.72;;;28.50;25.65
29879;BME280;16752;53.364;-1.488;2023-06-04T13:50:50;101414.38;;;29.51;24.30
29879;BME280;16752;53.364;-1.488;2023-06-04T13:53:35;101455.88;;;28.51;25.27
29879;BME280;16752;53.364;-1.488;2023-06-04T13:56:19;101375.25;;;28.56;24.57
29879;BME280;16752;53.364;-1.488;2023-06-04T13:59:04;101332.47;;;28.75;24.18
29879;BME280;16752;53.364;-1.488;2023-06-04T14:01:51;101448.16;;;30.29;23.08
29879;BME280;16752;53.364;-1.488;2023-06-04T14:04:35;101302.22;;;29.14;23.44
29879;BME280;16752;53.364;-1.488;2023-06-04T14:07:22;101447.00;;;29.97;23.80
29879;BME280;16752;53.364;-1.488;2023-06-04T14:13:53;101386.28;;;30.61;22.70
29879;BME280;16752;53.364;-1.488;2023-06-04T14:16:37;101410.19;;;30.77;22.40
29879;BME280;16752;53.364;-1.488;2023-06-04T14:19:21;101310.72;;;30.73;22.19
29879;BME280;16752;53.364;-1.488;2023-06-04T14:22:14;101351.41;;;31.37;21.02
29879;BME280;16752;53.364;-1.488;2023-06-04T14:25:04;101449.13;;;31.22;21.75
29879;BME280;16752;53.364;-1.488;2023-06-04T14:27:49;101321.06;;;31.09;20.87
29879;BME280;16752;53.364;-1.488;2023-06-04T14:30:33;101334.59;;;31.09;21.06
29879;BME280;16752;53.364;-1.488;2023-06-04T14:33:17;101319.66;;;30.73;21.52
29879;BME280;16752;53.364;-1.488;2023-06-04T14:36:01;101309.06;;;30.52;22.47
29879;BME280;16752;53.364;-1.488;2023-06-04T14:38:46;101353.28;;;29.98;23.26
29879;BME280;16752;53.364;-1.488;2023-06-04T14:41:57;101332.31;;;30.99;21.38
29879;BME280;16752;53.364;-1.488;2023-06-04T14:44:41;101413.59;;;31.63;21.02
29879;BME280;16752;53.364;-1.488;2023-06-04T14:47:28;101308.19;;;30.91;21.73
29879;BME280;16752;53.364;-1.488;2023-06-04T14:50:23;101378.59;;;31.69;21.21
29879;BME280;16752;53.364;-1.488;2023-06-04T14:53:08;101384.56;;;31.84;20.19
29879;BME280;16752;53.364;-1.488;2023-06-04T14:55:52;101346.47;;;31.79;20.73
29879;BME280;16752;53.364;-1.488;2023-06-04T14:58:37;101408.81;;;31.59;22.19
29879;BME280;16752;53.364;-1.488;2023-06-04T15:01:20;101290.03;;;31.62;20.61
29879;BME280;16752;53.364;-1.488;2023-06-04T15:04:12;101437.53;;;32.63;20.70
29879;BME280;16752;53.364;-1.488;2023-06-04T15:06:56;101419.28;;;30.36;22.55
29879;BME280;16752;53.364;-1.488;2023-06-04T15:09:40;101440.34;;;32.05;21.27
29879;BME280;16752;53.364;-1.488;2023-06-04T15:12:24;101422.38;;;33.05;20.24
29879;BME280;16752;53.364;-1.488;2023-06-04T15:15:09;101422.09;;;33.31;20.74
29879;BME280;16752;53.364;-1.488;2023-06-04T15:17:53;101289.03;;;32.95;19.82
29879;BME280;16752;53.364;-1.488;2023-06-04T15:20:37;101326.44;;;33.29;19.04
29879;BME280;16752;53.364;-1.488;2023-06-04T15:23:21;101442.97;;;36.04;16.82
29879;BME280;16752;53.364;-1.488;2023-06-04T15:26:05;101440.94;;;36.00;17.51
29879;BME280;16752;53.364;-1.488;2023-06-04T15:29:03;101442.69;;;37.74;15.40
29879;BME280;16752;53.364;-1.488;2023-06-04T15:31:57;101369.31;;;35.36;17.03
29879;BME280;16752;53.364;-1.488;2023-06-04T15:34:41;101318.44;;;35.98;16.06
29879;BME280;16752;53.364;-1.488;2023-06-04T15:37:25;101426.28;;;38.81;14.61
29879;BME280;16752;53.364;-1.488;2023-06-04T15:40:09;101419.91;;;38.71;15.22
29879;BME280;16752;53.364;-1.488;2023-06-04T15:43:02;101392.44;;;39.03;14.67
29879;BME280;16752;53.364;-1.488;2023-06-04T15:45:49;101324.69;;;39.51;13.96
29879;BME280;16752;53.364;-1.488;2023-06-04T15:48:33;101325.94;;;39.95;13.19
29879;BME280;16752;53.364;-1.488;2023-06-04T15:51:17;101424.78;;;41.02;12.72
29879;BME280;16752;53.364;-1.488;2023-06-04T15:54:02;101296.59;;;41.16;12.17
29879;BME280;16752;53.364;-1.488;2023-06-04T15:56:47;101349.25;;;40.03;13.38
29879;BME280;16752;53.364;-1.488;2023-06-04T15:59:40;101431.88;;;41.29;12.78
29879;BME280;16752;53.364;-1.488;2023-06-04T16:02:24;101362.84;;;37.99;14.42
29879;BME280;16752;53.364;-1.488;2023-06-04T16:05:08;101320.97;;;40.48;12.74
29879;BME280;16752;53.364;-1.488;2023-06-04T16:07:52;101304.94;;;41.01;12.21
29879;BME280;16752;53.364;-1.488;2023-06-04T16:10:36;101419.34;;;41.72;12.10
29879;BME280;16752;53.364;-1.488;2023-06-04T16:13:21;101349.25;;;40.64;12.72
29879;BME280;16752;53.364;-1.488;2023-06-04T16:16:05;101405.69;;;41.46;12.97
29879;BME280;16752;53.364;-1.488;2023-06-04T16:18:49;101353.38;;;40.51;13.10
29879;BME280;16752;53.364;-1.488;2023-06-04T16:21:34;101378.00;;;39.90;13.53
29879;BME280;16752;53.364;-1.488;2023-06-04T16:27:48;101282.56;;;34.57;17.23
29879;BME280;16752;53.364;-1.488;2023-06-04T16:30:32;101386.47;;;33.94;18.96
29879;BME280;16752;53.364;-1.488;2023-06-04T16:33:16;101263.94;;;32.56;19.57
29879;BME280;16752;53.364;-1.488;2023-06-04T16:36:01;101406.25;;;32.29;21.11
29879;BME280;16752;53.364;-1.488;2023-06-04T16:38:45;101293.84;;;30.04;22.47
29879;BME280;16752;53.364;-1.488;2023-06-04T16:41:30;101407.50;;;30.90;22.51
29879;BME280;16752;53.364;-1.488;2023-06-04T16:44:14;101401.44;;;30.75;22.85
29879;BME280;16752;53.364;-1.488;2023-06-04T16:46:59;101341.84;;;29.96;23.51
29879;BME280;16752;53.364;-1.488;2023-06-04T16:49:43;101391.63;;;30.54;23.35
29879;BME280;16752;53.364;-1.488;2023-06-04T16:52:27;101321.66;;;29.37;23.89
29879;BME280;16752;53.364;-1.488;2023-06-04T16:55:14;101398.25;;;30.25;24.11
29879;BME280;16752;53.364;-1.488;2023-06-04T16:58:00;101364.38;;;28.71;25.41
29879;BME280;16752;53.364;-1.488;2023-06-04T17:00:44;101378.97;;;29.74;24.19
29879;BME280;16752;53.364;-1.488;2023-06-04T17:03:28;101300.28;;;29.01;24.16
29879;BME280;16752;53.364;-1.488;2023-06-04T17:06:15;101384.75;;;29.30;24.67